Time;durP1;ratioP1;P1;durP2;ratioP2;P2;SDS_P1;SDS_P2;PMS_P1;PMS_P2;Temp;Humidity;BMP_temperature;BMP_pressure;BME280_temperature;BME280_humidity;BME280_pressure;Samples;Min_cycle;Max_cycle;Signal;HPM_P1;HPM_P2
2022/08/08 00:01:45;;;;;;;22.70;13.05;;;;;;;15.30;71.91;102359.06;5013481;28;20029;-59
2022/08/08 00:04:33;;;;;;;21.10;12.85;;;;;;;15.23;72.29;102348.28;5013492;28;20112;-59
2022/08/08 00:07:29;;;;;;;21.80;13.32;;;;;;;15.18;73.17;102353.91;5013300;28;20041;-59
2022/08/08 00:10:05;;;;;;;21.17;12.80;;;;;;;15.19;73.05;102365.91;5013336;28;20050;-59
2022/08/08 00:12:38;;;;;;;21.25;13.40;;;;;;;15.11;73.61;102354.28;5012884;28;20038;-60
2022/08/08 00:15:18;;;;;;;21.98;13.05;;;;;;;15.06;74.50;102347.97;5013096;28;20026;-60
2022/08/08 00:17:57;;;;;;;22.08;13.38;;;;;;;15.03;74.16;102360.53;5013277;28;20127;-59
2022/08/08 00:20:30;;;;;;;20.40;13.00;;;;;;;14.92;74.18;102351.50;5013382;28;20044;-59
2022/08/08 00:22:59;;;;;;;22.03;14.17;;;;;;;14.87;74.95;102347.94;5013146;28;20034;-59
2022/08/08 00:25:35;;;;;;;22.90;14.23;;;;;;;14.89;75.01;102354.06;5013002;28;20036;-59
2022/08/08 00:28:05;;;;;;;23.40;13.63;;;;;;;14.72;75.67;102348.97;4995476;28;20037;-60
2022/08/08 00:30:44;;;;;;;21.02;13.27;;;;;;;14.77;75.70;102362.84;5013272;28;20033;-60
2022/08/08 00:33:18;;;;;;;22.05;13.88;;;;;;;14.75;75.80;102359.53;5012706;28;20176;-61
2022/08/08 00:36:12;;;;;;;22.67;14.80;;;;;;;14.73;75.88;102365.41;5012948;28;20091;-60
2022/08/08 00:38:53;;;;;;;23.02;14.48;;;;;;;14.65;76.91;102366.00;5012910;28;20546;-60
2022/08/08 00:41:54;;;;;;;23.48;13.73;;;;;;;14.67;76.24;102366.56;5012626;28;20382;-60
2022/08/08 00:44:58;;;;;;;22.67;14.07;;;;;;;14.67;76.57;102363.78;5012885;28;20102;-60
2022/08/08 00:47:59;;;;;;;23.63;14.30;;;;;;;14.67;75.69;102366.56;5012185;28;20470;-59
2022/08/08 00:50:46;;;;;;;25.42;15.18;;;;;;;14.58;77.21;102357.19;5012610;28;20134;-59
2022/08/08 00:53:25;;;;;;;21.65;14.50;;;;;;;14.53;76.86;102346.94;5012697;28;20072;-60
2022/08/08 00:56:11;;;;;;;22.85;14.70;;;;;;;14.46;78.34;102347.28;5012073;28;20034;-60
2022/08/08 00:59:01;;;;;;;23.48;14.85;;;;;;;14.40;77.81;102356.00;5012335;28;20030;-59
2022/08/08 01:01:55;;;;;;;22.60;13.93;;;;;;;14.40;77.95;102350.44;5012548;28;20033;-59
2022/08/08 01:04:36;;;;;;;24.50;14.60;;;;;;;14.43;77.95;102347.88;5012267;28;20030;-61
2022/08/08 01:07:28;;;;;;;23.48;13.73;;;;;;;14.40;78.02;102356.00;5012510;28;20117;-60
2022/08/08 01:10:11;;;;;;;21.48;14.23;;;;;;;14.39;78.66;102341.25;5012500;28;20042;-60
2022/08/08 01:12:53;;;;;;;22.60;14.50;;;;;;;14.34;78.79;102346.88;5012480;28;20033;-60
2022/08/08 01:15:30;;;;;;;22.73;14.43;;;;;;;14.32;78.70;102343.56;5012102;28;20073;-59
2022/08/08 01:18:24;;;;;;;23.20;14.98;;;;;;;14.29;78.84;102346.91;5011987;28;20087;-60
2022/08/08 01:21:06;;;;;;;24.40;15.40;;;;;;;14.19;79.74;102342.31;5012065;28;20068;-59
2022/08/08 01:24:19;;;;;;;24.25;14.75;;;;;;;14.17;78.80;102341.75;5010335;28;20044;-59
2022/08/08 01:27:16;;;;;;;24.15;14.93;;;;;;;14.10;80.51;102342.09;4984791;28;20354;-59
2022/08/08 01:30:20;;;;;;;23.17;14.65;;;;;;;14.11;79.87;102340.16;5011973;28;20532;-60
2022/08/08 01:33:16;;;;;;;22.73;14.88;;;;;;;14.04;80.68;102346.88;5011389;28;20083;-59
2022/08/08 01:36:07;;;;;;;23.77;15.40;;;;;;;13.91;80.65;102327.25;5011395;28;20104;-58
2022/08/08 01:38:32;;;;;;;22.67;15.68;;;;;;;14.01;80.98;102350.28;5011287;28;20026;-59
2022/08/08 01:41:01;;;;;;;23.67;14.93;;;;;;;13.92;82.14;102345.63;5011660;28;20041;-59
2022/08/08 01:43:48;;;;;;;23.35;15.52;;;;;;;13.88;81.13;102328.69;5011684;28;20103;-59
2022/08/08 01:46:48;;;;;;;23.02;15.60;;;;;;;13.91;81.24;102338.38;5012060;28;20022;-59
2022/08/08 01:49:25;;;;;;;22.58;14.68;;;;;;;13.88;82.21;102348.16;5011696;28;20052;-59
2022/08/08 01:52:02;;;;;;;23.17;15.63;;;;;;;13.85;82.09;102334.81;5011790;28;20034;-59
2022/08/08 01:54:50;;;;;;;23.20;15.13;;;;;;;13.85;81.89;102352.34;5011688;28;20021;-59
2022/08/08 01:57:32;;;;;;;23.15;15.93;;;;;;;13.85;82.53;102349.56;5011738;28;20041;-59
2022/08/08 02:00:18;;;;;;;22.95;15.90;;;;;;;13.80;82.75;102346.81;5011625;28;20457;-59
2022/08/08 02:03:05;;;;;;;22.88;15.77;;;;;;;13.80;82.58;102351.56;5011944;28;20037;-60
2022/08/08 02:05:36;;;;;;;23.08;15.30;;;;;;;13.78;82.98;102342.69;5012039;28;20109;-60
2022/08/08 02:08:15;;;;;;;25.10;15.55;;;;;;;13.71;82.96;102331.88;5012261;28;20034;-60
2022/08/08 02:11:00;;;;;;;22.73;15.85;;;;;;;13.75;83.21;102354.38;5015894;28;20172;-59
2022/08/08 02:13:46;;;;;;;24.52;16.45;;;;;;;13.67;83.48;102344.72;5015585;28;20497;-59
2022/08/08 02:16:26;;;;;;;25.17;16.83;;;;;;;13.60;84.18;102353.41;5015445;28;20030;-59
2022/08/08 02:18:59;;;;;;;25.30;17.33;;;;;;;13.53;84.51;102350.94;5015212;28;20041;-60
2022/08/08 02:24:30;;;;;;;23.90;16.75;;;;;;;13.50;84.95;102343.19;5015418;28;20053;-58
2022/08/08 02:27:25;;;;;;;24.70;16.20;;;;;;;13.50;84.31;102339.56;4997091;28;20033;-60
2022/08/08 02:30:30;;;;;;;24.70;16.98;;;;;;;13.35;85.42;102338.53;5015422;28;20117;-59
2022/08/08 02:33:13;;;;;;;26.67;17.05;;;;;;;13.41;85.52;102351.31;5011476;28;20489;-60
2022/08/08 02:35:53;;;;;;;25.40;16.88;;;;;;;13.36;85.56;102348.53;5015026;28;20370;-59
2022/08/08 02:38:56;;;;;;;23.85;16.35;;;;;;;13.43;84.73;102347.41;5015166;28;20025;-59
2022/08/08 02:41:45;;;;;;;24.60;16.10;;;;;;;13.42;85.11;102352.13;5014961;28;20084;-58
2022/08/08 02:44:42;;;;;;;23.80;16.30;;;;;;;13.40;84.74;102344.09;5014838;28;20026;-59
2022/08/08 02:47:42;;;;;;;23.92;16.17;;;;;;;13.27;85.74;102337.19;5014505;28;20030;-60
2022/08/08 02:50:29;;;;;;;23.67;15.95;;;;;;;13.28;85.18;102335.22;5014198;28;20045;-60
2022/08/08 02:53:14;;;;;;;25.90;16.60;;;;;;;13.24;85.91;102334.97;5014554;28;20061;-60
2022/08/08 02:56:07;;;;;;;24.10;17.08;;;;;;;13.29;85.93;102347.19;5014534;28;20040;-61
2022/08/08 02:59:20;;;;;;;23.38;16.90;;;;;;;13.26;85.45;102349.44;5014505;28;20034;-60
2022/08/08 03:02:09;;;;;;;24.80;16.77;;;;;;;13.21;86.57;102346.69;5014506;28;20105;-59
2022/08/08 03:04:59;;;;;;;25.08;16.90;;;;;;;13.14;87.05;102351.72;5014474;28;20026;-60
2022/08/08 03:08:27;;;;;;;24.58;16.88;;;;;;;13.11;86.46;102338.41;5014200;28;20474;-60
2022/08/08 03:11:42;;;;;;;25.63;16.88;;;;;;;13.09;86.85;102349.78;5014244;28;20551;-59
2022/08/08 03:14:38;;;;;;;26.55;17.85;;;;;;;13.11;86.88;102358.69;5013902;28;20474;-59
2022/08/08 03:17:12;;;;;;;26.30;16.80;;;;;;;13.10;87.18;102347.88;5014032;28;20481;-59
2022/08/08 03:20:00;;;;;;;25.77;17.50;;;;;;;13.09;87.33;102354.53;5011506;28;20031;-59
2022/08/08 03:22:26;;;;;;;24.45;16.92;;;;;;;13.08;87.55;102359.25;5013946;28;20036;-59
2022/08/08 03:24:51;;;;;;;26.17;17.93;;;;;;;13.02;88.16;102359.59;5014139;28;20029;-60
2022/08/08 03:27:24;;;;;;;23.95;16.88;;;;;;;12.87;88.26;102347.41;5013863;28;20277;-59
2022/08/08 03:30:00;;;;;;;25.88;17.90;;;;;;;12.80;89.56;102356.06;5013425;28;20033;-59
2022/08/08 03:35:10;;;;;;;25.13;17.85;;;;;;;12.77;90.17;102366.91;5014053;28;20377;-59
2022/08/08 03:37:35;;;;;;;24.90;18.40;;;;;;;12.79;89.90;102364.69;5013912;28;20030;-59
2022/08/08 03:40:04;;;;;;;25.88;18.75;;;;;;;12.77;90.16;102358.56;5013717;28;20033;-59
2022/08/08 03:42:30;;;;;;;28.35;18.98;;;;;;;12.85;90.46;102371.03;5013293;28;20037;-59
2022/08/08 03:44:55;;;;;;;26.23;18.33;;;;;;;12.83;90.24;102368.56;5013461;28;20418;-59
2022/08/08 03:47:21;;;;;;;25.80;19.13;;;;;;;12.84;90.36;102361.91;4995738;28;20050;-59
2022/08/08 03:49:47;;;;;;;27.08;18.17;;;;;;;12.85;91.06;102374.63;5013288;28;20087;-59
2022/08/08 03:52:14;;;;;;;26.55;20.02;;;;;;;12.79;90.97;102368.31;5013135;28;20366;-58
2022/08/08 03:54:42;;;;;;;26.60;18.00;;;;;;;12.69;91.11;102362.78;5013392;28;20022;-59
2022/08/08 03:57:13;;;;;;;25.38;18.55;;;;;;;12.73;91.04;102371.38;5013345;28;20022;-59
2022/08/08 03:59:39;;;;;;;29.45;19.13;;;;;;;12.75;91.47;102372.75;5013083;28;20026;-58
2022/08/08 04:02:18;;;;;;;25.25;17.75;;;;;;;12.79;91.04;102378.56;5013431;28;20033;-60
2022/08/08 04:04:44;;;;;;;25.75;18.42;;;;;;;12.75;91.18;102372.75;5013165;28;20066;-59
2022/08/08 04:07:10;;;;;;;24.85;19.08;;;;;;;12.74;91.55;102379.41;5013295;28;20038;-59
2022/08/08 04:09:36;;;;;;;25.20;19.25;;;;;;;12.66;92.46;102381.97;5012853;28;20021;-59
2022/08/08 04:12:01;;;;;;;27.70;18.83;;;;;;;12.66;91.79;102374.44;5013308;28;20549;-59
2022/08/08 04:14:27;;;;;;;27.70;18.67;;;;;;;12.68;91.59;102380.56;5013364;28;20041;-60
2022/08/08 04:16:52;;;;;;;27.48;18.58;;;;;;;12.71;91.41;102387.47;5013283;28;20025;-59
2022/08/08 04:19:18;;;;;;;27.10;19.52;;;;;;;12.70;92.84;102380.25;5012974;28;20025;-59
2022/08/08 04:21:43;;;;;;;27.58;19.42;;;;;;;12.71;92.30;102371.63;5012936;28;20119;-60
2022/08/08 04:24:08;;;;;;;27.17;19.08;;;;;;;12.72;92.25;102378.03;5013031;28;20029;-60
2022/08/08 04:26:34;;;;;;;26.65;19.25;;;;;;;12.69;92.55;102378.59;5012902;28;20038;-62
2022/08/08 04:28:59;;;;;;;27.00;17.30;;;;;;;12.72;91.71;102381.63;5013137;28;20046;-59
2022/08/08 04:31:24;;;;;;;25.65;18.27;;;;;;;12.79;91.91;102386.91;5012877;28;20025;-58
2022/08/08 04:33:50;;;;;;;24.98;18.75;;;;;;;12.79;92.16;102381.34;5013233;28;20074;-59
2022/08/08 04:36:15;;;;;;;27.17;18.27;;;;;;;12.80;91.54;102391.34;5012616;28;20069;-60
2022/08/08 04:38:40;;;;;;;25.58;18.35;;;;;;;12.81;92.10;102384.66;5012669;28;20088;-59
2022/08/08 04:41:06;;;;;;;25.55;17.70;;;;;;;12.88;91.58;102393.53;5012574;28;20041;-59
2022/08/08 04:43:31;;;;;;;26.98;17.77;;;;;;;12.87;91.99;102397.41;5012887;28;20489;-59
2022/08/08 04:45:57;;;;;;;26.45;19.60;;;;;;;12.82;92.61;102400.22;5012574;28;20029;-59
2022/08/08 04:48:22;;;;;;;25.00;18.45;;;;;;;12.85;92.18;102407.97;5012226;28;20049;-59
2022/08/08 04:50:47;;;;;;;26.83;17.95;;;;;;;12.89;91.57;102416.59;5012522;28;20041;-59
2022/08/08 04:53:13;;;;;;;27.13;19.60;;;;;;;12.88;91.52;102412.16;5011984;28;20355;-59
2022/08/08 04:55:39;;;;;;;27.80;18.70;;;;;;;12.88;91.83;102414.94;5012339;28;20022;-59
2022/08/08 04:58:04;;;;;;;26.73;18.65;;;;;;;12.86;92.03;102415.19;5012356;28;20103;-59
2022/08/08 05:00:29;;;;;;;25.25;17.38;;;;;;;12.90;92.19;102416.28;5012551;28;20036;-60
2022/08/08 05:02:55;;;;;;;26.92;18.40;;;;;;;12.92;91.90;102419.63;5012869;28;20085;-59
2022/08/08 05:05:20;;;;;;;26.75;18.17;;;;;;;12.98;92.02;102423.22;5012210;28;20480;-60
2022/08/08 05:07:46;;;;;;;26.20;18.85;;;;;;;13.06;91.89;102427.34;5012288;28;20021;-59
2022/08/08 05:10:11;;;;;;;27.50;18.98;;;;;;;13.06;92.30;102432.88;5011890;28;20533;-60
2022/08/08 05:12:36;;;;;;;26.80;18.90;;;;;;;13.12;91.68;102429.00;5011727;28;20036;-59
2022/08/08 05:15:02;;;;;;;25.58;18.98;;;;;;;13.14;92.00;102431.47;5011782;28;20022;-59
2022/08/08 05:17:27;;;;;;;26.13;19.20;;;;;;;13.15;92.25;102435.91;5011625;28;20521;-59
2022/08/08 05:19:53;;;;;;;26.00;18.73;;;;;;;13.21;91.48;102424.50;5011829;28;20029;-59
2022/08/08 05:22:18;;;;;;;27.52;19.08;;;;;;;13.26;91.93;102432.81;5011762;28;20101;-59
2022/08/08 05:24:44;;;;;;;26.70;18.60;;;;;;;13.31;91.22;102431.94;5011790;28;20034;-59
2022/08/08 05:27:09;;;;;;;25.17;18.50;;;;;;;13.33;90.85;102421.38;5011899;28;20032;-61
2022/08/08 05:29:35;;;;;;;26.25;18.67;;;;;;;13.45;90.91;102434.13;5012145;28;20116;-60
2022/08/08 05:32:00;;;;;;;26.35;19.17;;;;;;;13.50;91.04;102437.72;5011986;28;20446;-59
2022/08/08 05:34:40;;;;;;;27.65;17.80;;;;;;;13.54;90.80;102424.06;5011819;28;20086;-58
2022/08/08 05:37:07;;;;;;;25.67;17.85;;;;;;;13.66;90.09;102423.72;5012100;28;20030;-59
2022/08/08 05:39:33;;;;;;;26.20;18.88;;;;;;;13.72;90.16;102430.88;5012180;28;20123;-59
2022/08/08 05:42:00;;;;;;;25.35;18.63;;;;;;;13.78;90.25;102434.47;5011906;28;20057;-59
2022/08/08 05:44:28;;;;;;;26.17;19.27;;;;;;;13.77;90.26;102428.09;5014518;28;20371;-59
2022/08/08 05:46:54;;;;;;;26.05;19.27;;;;;;;13.86;89.68;102445.81;5015481;28;20133;-60
2022/08/08 05:49:20;;;;;;;25.27;18.45;;;;;;;13.94;89.27;102441.56;5015642;28;20057;-59
2022/08/08 05:51:46;;;;;;;25.73;18.67;;;;;;;13.94;89.29;102443.53;5015973;28;20041;-59
2022/08/08 05:54:12;;;;;;;26.05;19.05;;;;;;;13.91;89.39;102444.94;4998153;28;20065;-59
2022/08/08 05:56:39;;;;;;;27.30;20.10;;;;;;;13.85;89.97;102444.16;5015471;28;20060;-59
2022/08/08 05:59:07;;;;;;;26.90;19.67;;;;;;;13.82;90.29;102436.38;5015667;28;20038;-59
2022/08/08 06:01:39;;;;;;;27.60;19.95;;;;;;;13.95;90.28;102434.88;5015363;28;20132;-59
2022/08/08 06:04:09;;;;;;;27.23;20.27;;;;;;;14.02;90.00;102443.75;5015638;28;20029;-59
2022/08/08 06:06:38;;;;;;;28.55;20.40;;;;;;;14.07;90.25;102442.03;5015514;28;20399;-59
2022/08/08 06:09:04;;;;;;;26.48;19.35;;;;;;;14.17;89.93;102451.13;5015603;28;20026;-59
2022/08/08 06:11:31;;;;;;;24.48;18.02;;;;;;;14.29;89.28;102442.41;5015600;28;20037;-59
2022/08/08 06:13:56;;;;;;;26.90;18.27;;;;;;;14.40;88.76;102445.91;5015575;28;20041;-59
2022/08/08 06:16:22;;;;;;;26.15;18.92;;;;;;;14.54;88.72;102442.47;5015269;28;20030;-60
2022/08/08 06:18:50;;;;;;;25.65;18.35;;;;;;;14.68;87.99;102450.97;5015426;28;20114;-59
2022/08/08 06:21:16;;;;;;;26.58;18.42;;;;;;;14.76;87.74;102447.53;5013891;28;20029;-60
2022/08/08 06:23:41;;;;;;;26.35;17.55;;;;;;;14.86;86.97;102454.94;5015628;28;20040;-59
2022/08/08 06:26:10;;;;;;;24.40;16.77;;;;;;;14.95;86.53;102461.50;4997733;28;20041;-60
2022/08/08 06:28:47;;;;;;;26.38;16.25;;;;;;;15.04;86.12;102459.72;5015558;28;20030;-60
2022/08/08 06:31:18;;;;;;;23.67;16.48;;;;;;;15.11;85.56;102459.38;5015472;28;20037;-59
2022/08/08 06:33:56;;;;;;;22.92;15.23;;;;;;;15.23;84.87;102458.94;5015142;28;20042;-60
2022/08/08 06:36:36;;;;;;;23.25;15.50;;;;;;;15.31;84.40;102454.69;5015176;28;20072;-60
2022/08/08 06:39:03;;;;;;;23.23;15.23;;;;;;;15.46;84.21;102456.44;5015063;28;20025;-60
2022/08/08 06:41:32;;;;;;;22.48;14.98;;;;;;;15.57;83.41;102461.56;5014888;28;20076;-59
2022/08/08 06:44:01;;;;;;;22.02;14.57;;;;;;;15.65;82.21;102474.00;5015739;28;20482;-59
2022/08/08 06:46:27;;;;;;;21.38;14.10;;;;;;;15.73;82.32;102467.75;5015036;28;20030;-59
2022/08/08 06:48:53;;;;;;;23.00;14.65;;;;;;;15.82;81.73;102467.88;5015507;28;20046;-60
2022/08/08 06:51:19;;;;;;;21.27;13.80;;;;;;;15.90;81.31;102467.25;5015307;28;20116;-60
2022/08/08 06:53:45;;;;;;;22.38;13.90;;;;;;;16.04;80.55;102470.09;5014836;28;20052;-60
2022/08/08 06:56:10;;;;;;;23.35;14.63;;;;;;;16.17;80.51;102471.28;5014521;28;20442;-59
2022/08/08 06:58:36;;;;;;;22.27;13.68;;;;;;;16.27;79.94;102466.66;5014575;28;20037;-59
2022/08/08 07:01:04;;;;;;;21.65;13.48;;;;;;;16.35;78.56;102480.72;5015060;28;20033;-59
2022/08/08 07:03:41;;;;;;;22.02;13.40;;;;;;;16.44;78.00;102474.44;5014650;28;20033;-60
2022/08/08 07:06:09;;;;;;;22.27;13.13;;;;;;;16.55;77.75;102475.09;5014676;28;20413;-59
2022/08/08 07:08:37;;;;;;;23.33;13.02;;;;;;;16.67;77.66;102470.66;5014215;28;20034;-60
2022/08/08 07:11:04;;;;;;;22.10;12.98;;;;;;;16.74;76.92;102461.88;5014306;28;20026;-59
2022/08/08 07:13:43;;;;;;;22.95;13.60;;;;;;;16.84;76.70;102477.59;5014357;28;20029;-60
2022/08/08 07:16:23;;;;;;;21.88;12.95;;;;;;;16.85;75.45;102470.88;5013968;28;20026;-60
2022/08/08 07:19:08;;;;;;;20.48;12.63;;;;;;;16.97;75.54;102467.59;5014648;28;20044;-59
2022/08/08 07:21:56;;;;;;;20.48;12.93;;;;;;;17.19;74.40;102483.66;5014259;28;20577;-60
2022/08/08 07:24:47;;;;;;;20.63;11.10;;;;;;;17.30;72.50;102475.88;5014534;28;20041;-60
2022/08/08 07:27:17;;;;;;;18.63;10.75;;;;;;;17.41;71.76;102493.25;5011201;28;20511;-59
2022/08/08 07:29:44;;;;;;;18.67;11.25;;;;;;;17.54;71.78;102494.38;4996729;28;20030;-59
2022/08/08 07:32:11;;;;;;;21.05;10.20;;;;;;;17.65;71.22;102486.59;5014168;28;20042;-59
2022/08/08 07:34:36;;;;;;;18.23;10.10;;;;;;;17.74;70.34;102490.31;5014035;28;20069;-59
2022/08/08 07:37:04;;;;;;;17.25;9.98;;;;;;;17.81;70.21;102487.91;5014276;28;20057;-59
2022/08/08 07:39:30;;;;;;;17.65;9.55;;;;;;;17.83;70.66;102484.78;5013804;28;20054;-60
2022/08/08 07:41:57;;;;;;;19.98;10.30;;;;;;;17.85;69.64;102479.69;4996325;28;20183;-59
2022/08/08 07:44:23;;;;;;;19.42;10.07;;;;;;;17.97;69.83;102488.41;4996083;28;20128;-60
2022/08/08 07:46:49;;;;;;;17.38;9.55;;;;;;;18.05;69.76;102493.22;5013873;28;20035;-59
2022/08/08 07:49:14;;;;;;;16.42;9.60;;;;;;;18.12;68.99;102490.00;5013695;28;20053;-59
2022/08/08 07:51:41;;;;;;;15.93;9.43;;;;;;;18.20;68.93;102496.78;5013525;28;20025;-59
2022/08/08 07:54:19;;;;;;;17.13;8.80;;;;;;;18.26;68.03;102500.28;5013272;28;20033;-60
2022/08/08 07:57:02;;;;;;;17.70;9.35;;;;;;;18.27;68.15;102491.59;4995807;28;20065;-60
2022/08/08 07:59:34;;;;;;;16.58;9.25;;;;;;;18.28;67.39;102481.19;5013503;28;20385;-59
2022/08/08 08:02:05;;;;;;;17.98;9.73;;;;;;;18.46;68.18;102484.94;5013275;28;20038;-59
2022/08/08 08:04:33;;;;;;;18.40;9.13;;;;;;;18.53;67.79;102497.34;5013746;28;20062;-60
2022/08/08 08:07:01;;;;;;;18.45;9.50;;;;;;;18.66;67.71;102500.38;5012987;28;20022;-59
2022/08/08 08:09:37;;;;;;;15.23;8.68;;;;;;;18.53;66.36;102488.94;5013371;28;20033;-59
2022/08/08 08:12:03;;;;;;;17.48;8.70;;;;;;;18.74;66.66;102499.59;5012151;28;20029;-59
2022/08/08 08:14:42;;;;;;;14.88;8.27;;;;;;;18.75;65.54;102497.63;5013227;28;20029;-59
2022/08/08 08:17:09;;;;;;;17.13;8.90;;;;;;;18.85;65.41;102498.16;5013375;28;20144;-59
2022/08/08 08:19:35;;;;;;;15.55;8.50;;;;;;;18.95;65.30;102502.69;5013102;28;20451;-59
2022/08/08 08:22:01;;;;;;;15.07;8.10;;;;;;;19.04;64.04;102510.31;5013067;28;20091;-59
2022/08/08 08:24:26;;;;;;;14.48;8.50;;;;;;;19.04;63.12;102504.69;5013126;28;20034;-59
2022/08/08 08:26:52;;;;;;;16.42;8.05;;;;;;;19.09;63.66;102510.16;5013210;28;20050;-59
2022/08/08 08:29:17;;;;;;;18.05;9.02;;;;;;;19.27;63.94;102514.69;5013199;28;20057;-59
2022/08/08 08:31:42;;;;;;;16.73;8.50;;;;;;;19.51;62.49;102509.78;5013013;28;20026;-59
2022/08/08 08:34:07;;;;;;;16.90;8.30;;;;;;;19.53;61.92;102507.50;5013058;28;20022;-59
2022/08/08 08:36:34;;;;;;;15.55;8.55;;;;;;;19.58;61.69;102504.50;5013039;28;20096;-59
2022/08/08 08:38:59;;;;;;;17.65;8.65;;;;;;;19.67;61.31;102508.16;5012722;28;20096;-59
2022/08/08 08:41:26;;;;;;;13.85;7.72;;;;;;;19.70;61.13;102510.31;5012823;28;20022;-59
2022/08/08 08:43:52;;;;;;;15.82;8.05;;;;;;;19.71;61.26;102514.78;5013083;28;20036;-58
2022/08/08 08:46:19;;;;;;;17.05;8.40;;;;;;;19.69;59.83;102514.28;5012793;28;20158;-60
2022/08/08 08:48:45;;;;;;;12.73;7.95;;;;;;;19.69;60.72;102517.09;5012645;28;20057;-60
2022/08/08 08:51:13;;;;;;;13.40;8.00;;;;;;;19.76;59.61;102523.03;5012761;28;20411;-59
2022/08/08 08:53:44;;;;;;;13.00;7.78;;;;;;;19.88;59.72;102514.00;5012602;28;20021;-59
2022/08/08 08:56:12;;;;;;;13.02;7.65;;;;;;;20.01;57.54;102520.63;5012749;28;20059;-59
2022/08/08 08:58:42;;;;;;;13.70;7.97;;;;;;;20.01;58.14;102502.91;5012349;28;20144;-59
2022/08/08 09:01:12;;;;;;;11.85;7.70;;;;;;;20.20;57.21;102513.84;5012364;28;20087;-59
2022/08/08 09:03:43;;;;;;;15.43;7.90;;;;;;;20.35;58.02;102507.69;5012276;28;20034;-58
2022/08/08 09:06:10;;;;;;;17.00;8.00;;;;;;;20.47;57.51;102529.47;5012169;28;20037;-59
2022/08/08 09:08:41;;;;;;;14.63;8.27;;;;;;;20.37;57.69;102516.63;5012558;28;20022;-59
2022/08/08 09:11:07;;;;;;;14.48;7.25;;;;;;;20.40;57.20;102526.34;5012884;28;20148;-58
2022/08/08 09:13:35;;;;;;;10.60;7.13;;;;;;;20.53;56.78;102514.09;5012092;28;20368;-59
2022/08/08 09:16:01;;;;;;;13.85;7.13;;;;;;;20.58;55.96;102524.34;5012123;28;20179;-59
2022/08/08 09:18:28;;;;;;;14.07;7.57;;;;;;;20.40;55.68;102527.16;5012071;28;20034;-59
2022/08/08 09:20:54;;;;;;;15.07;7.20;;;;;;;20.46;55.43;102518.56;5012227;28;20036;-59
2022/08/08 09:23:20;;;;;;;14.10;7.30;;;;;;;20.61;54.84;102518.03;5011949;28;20021;-58
2022/08/08 09:26:02;;;;;;;12.15;7.15;;;;;;;20.79;55.56;102510.41;5012170;28;20115;-59
2022/08/08 09:28:28;;;;;;;15.48;8.10;;;;;;;21.08;54.86;102517.25;5012163;28;20397;-59
2022/08/08 09:31:01;;;;;;;13.85;7.68;;;;;;;21.33;54.72;102520.25;5012165;28;20018;-60
2022/08/08 09:33:29;;;;;;;13.82;7.80;;;;;;;21.41;54.61;102513.75;5012349;28;20091;-60
2022/08/08 09:35:54;;;;;;;16.83;8.30;;;;;;;21.35;54.39;102520.75;5012150;28;20045;-60
2022/08/08 09:38:44;;;;;;;12.93;7.40;;;;;;;21.19;55.53;102517.69;5013198;28;20041;-59
2022/08/08 09:41:15;;;;;;;12.02;7.40;;;;;;;21.00;55.44;102529.38;5012067;28;20045;-60
2022/08/08 09:43:48;;;;;;;13.25;7.75;;;;;;;20.81;55.91;102522.16;4994868;28;20084;-59
2022/08/08 09:46:15;;;;;;;12.82;8.02;;;;;;;20.63;56.08;102512.09;5011602;28;20080;-60
2022/08/08 09:48:44;;;;;;;15.70;7.82;;;;;;;20.68;55.63;102509.09;5011763;28;20493;-60
2022/08/08 09:51:13;;;;;;;14.73;8.30;;;;;;;20.94;54.97;102511.84;5012124;28;20022;-61
2022/08/08 09:53:48;;;;;;;14.02;8.23;;;;;;;21.16;54.06;102513.56;5011963;28;20177;-60
2022/08/08 09:56:15;;;;;;;12.35;8.18;;;;;;;21.51;53.04;102507.72;5011642;28;20128;-60
2022/08/08 09:58:51;;;;;;;14.38;8.02;;;;;;;21.67;51.57;102521.25;5012598;28;20485;-59
2022/08/08 10:01:22;;;;;;;13.20;8.30;;;;;;;21.71;51.28;102515.75;5011767;28;20120;-59
2022/08/08 10:03:49;;;;;;;14.80;7.88;;;;;;;22.03;50.72;102514.16;5011565;28;20105;-59
2022/08/08 10:06:16;;;;;;;11.15;7.78;;;;;;;22.28;50.49;102511.44;5011510;28;20119;-59
2022/08/08 10:08:49;;;;;;;12.43;7.80;;;;;;;22.31;49.23;102515.56;5012070;28;20083;-60
2022/08/08 10:11:19;;;;;;;14.55;7.90;;;;;;;22.66;49.09;102510.41;5011408;28;20029;-60
2022/08/08 10:14:01;;;;;;;12.63;7.93;;;;;;;22.85;48.42;102509.03;5011731;28;20057;-59
2022/08/08 10:16:38;;;;;;;10.68;7.53;;;;;;;22.66;48.02;102513.22;5011486;28;20110;-59
2022/08/08 10:19:06;;;;;;;13.18;8.20;;;;;;;22.27;48.83;102506.97;5011778;28;20094;-58
2022/08/08 10:21:35;;;;;;;14.27;7.90;;;;;;;22.03;49.43;102528.25;5011218;28;20374;-60
2022/08/08 10:24:10;;;;;;;13.45;8.23;;;;;;;22.12;49.19;102516.91;5011339;28;20037;-59
2022/08/08 10:26:46;;;;;;;14.15;7.80;;;;;;;22.23;49.23;102514.50;5011650;28;20032;-59
2022/08/08 10:29:12;;;;;;;13.95;8.07;;;;;;;22.29;48.15;102519.53;5012771;28;20526;-59
2022/08/08 10:34:26;;;;;;;13.68;7.63;;;;;;;22.46;48.75;102511.28;5014610;28;20040;-59
2022/08/08 10:36:52;;;;;;;12.68;7.80;;;;;;;22.70;48.31;102508.53;5015383;28;20092;-60
2022/08/08 10:39:25;;;;;;;12.18;7.57;;;;;;;22.83;47.94;102505.72;5015034;28;20033;-59
2022/08/08 10:41:58;;;;;;;11.57;7.43;;;;;;;23.07;45.92;102496.44;5015162;28;20044;-59
2022/08/08 10:44:37;;;;;;;16.17;8.70;;;;;;;23.26;46.95;102500.72;5015166;28;20466;-59
2022/08/08 10:47:14;;;;;;;11.88;7.40;;;;;;;23.21;46.99;102507.41;5015079;28;20028;-60
2022/08/08 10:49:42;;;;;;;11.95;7.68;;;;;;;23.44;45.99;102507.75;5014608;28;20050;-60
2022/08/08 10:52:08;;;;;;;11.05;7.50;;;;;;;23.27;44.61;102513.66;5014710;28;20034;-59
2022/08/08 10:54:33;;;;;;;11.82;7.55;;;;;;;23.07;45.15;102504.91;5015062;28;20352;-60
2022/08/08 10:57:00;;;;;;;13.35;7.20;;;;;;;22.68;46.29;102513.72;5013164;28;20040;-60
2022/08/08 10:59:26;;;;;;;11.70;7.28;;;;;;;22.32;46.18;102503.94;5014682;28;20034;-60
2022/08/08 11:01:52;;;;;;;11.27;6.53;;;;;;;22.30;46.61;102506.28;5014682;28;20176;-60
2022/08/08 11:04:17;;;;;;;9.13;6.80;;;;;;;22.31;46.53;102509.91;5014377;28;20030;-60
2022/08/08 11:06:43;;;;;;;9.10;7.00;;;;;;;22.43;46.84;102505.16;5014733;28;20033;-59
2022/08/08 11:09:10;;;;;;;8.68;7.07;;;;;;;22.90;45.37;102487.03;5014419;28;20028;-59
2022/08/08 11:11:41;;;;;;;10.43;6.90;;;;;;;23.31;45.26;102494.84;5014604;28;20069;-59
2022/08/08 11:14:08;;;;;;;9.10;7.18;;;;;;;23.29;44.30;102488.72;4997156;28;20030;-59
2022/08/08 11:16:34;;;;;;;11.50;7.55;;;;;;;23.60;44.05;102490.91;5014103;28;20026;-59
2022/08/08 11:19:01;;;;;;;10.45;7.00;;;;;;;23.47;43.33;102500.59;5014199;28;20506;-60
2022/08/08 11:21:39;;;;;;;13.20;7.60;;;;;;;23.21;43.88;102496.13;5014084;28;20042;-60
2022/08/08 11:24:07;;;;;;;12.02;7.30;;;;;;;23.13;43.58;102488.56;5014179;28;20445;-60
2022/08/08 11:26:34;;;;;;;11.25;7.70;;;;;;;22.97;43.77;102492.13;5014577;28;20154;-59
2022/08/08 11:29:02;;;;;;;11.45;7.38;;;;;;;22.71;44.45;102486.78;5014015;28;20034;-59
2022/08/08 11:31:34;;;;;;;12.65;7.60;;;;;;;22.73;44.90;102487.28;5013896;28;20029;-59
2022/08/08 11:34:02;;;;;;;10.82;7.47;;;;;;;23.01;44.33;102480.94;5013898;28;20080;-59
2022/08/08 11:36:27;;;;;;;10.73;7.43;;;;;;;23.30;43.14;102481.91;5014014;28;20021;-60
2022/08/08 11:38:54;;;;;;;10.35;6.97;;;;;;;23.47;42.89;102475.97;5014234;28;20083;-59
2022/08/08 11:41:21;;;;;;;11.57;7.30;;;;;;;23.19;42.55;102485.19;5012637;28;20374;-59
2022/08/08 11:43:47;;;;;;;11.32;6.97;;;;;;;23.06;42.61;102475.88;5014056;28;20037;-59
2022/08/08 11:46:14;;;;;;;10.07;6.80;;;;;;;22.97;42.13;102486.47;5014188;28;20394;-60
2022/08/08 11:48:40;;;;;;;11.18;7.03;;;;;;;22.74;42.34;102469.97;5013478;28;20493;-60